createdAt,value
2023-10-05T00:02:22.669Z,57.06
2023-10-05T00:04:52.514Z,57.12
2023-10-05T00:07:28.521Z,56.88
2023-10-05T00:09:58.865Z,56.95
2023-10-05T00:12:26.950Z,56.94
2023-10-05T00:15:10.375Z,57.07
2023-10-05T00:17:41.220Z,57.06
2023-10-05T00:20:34.672Z,57.00
2023-10-05T00:23:06.839Z,57.07
2023-10-05T00:25:35.424Z,57.13
2023-10-05T00:28:07.424Z,57.20
2023-10-05T00:30:36.199Z,57.25
2023-10-05T00:33:08.793Z,57.31
2023-10-05T00:35:38.489Z,57.17
2023-10-05T00:38:17.467Z,57.09
2023-10-05T00:40:56.742Z,57.12
2023-10-05T00:43:26.958Z,57.20
2023-10-05T00:45:58.537Z,57.13
2023-10-05T00:48:42.345Z,57.10
2023-10-05T00:51:25.048Z,57.15
2023-10-05T00:53:54.466Z,57.16
2023-10-05T00:56:24.168Z,57.31
2023-10-05T00:59:05.952Z,57.18
2023-10-05T01:01:54.772Z,57.24
2023-10-05T01:04:41.747Z,57.31
2023-10-05T01:07:19.598Z,57.36
2023-10-05T01:09:53.169Z,57.24
2023-10-05T01:12:21.137Z,57.23
2023-10-05T01:14:54.695Z,57.09
2023-10-05T01:17:27.707Z,57.11
2023-10-05T01:19:58.409Z,57.04
2023-10-05T01:22:34.206Z,57.14
2023-10-05T01:25:04.081Z,57.13
2023-10-05T01:27:32.877Z,57.10
2023-10-05T01:30:01.201Z,56.83
2023-10-05T01:32:29.284Z,56.89
2023-10-05T01:34:56.929Z,56.84
2023-10-05T01:37:27.242Z,56.75
2023-10-05T01:39:55.046Z,56.78
2023-10-05T01:42:22.581Z,56.78
2023-10-05T01:44:50.749Z,56.88
2023-10-05T01:47:18.824Z,57.02
2023-10-05T01:49:52.837Z,57.27
2023-10-05T01:52:22.436Z,57.30
2023-10-05T01:54:50.173Z,57.36
2023-10-05T01:57:18.140Z,57.40
2023-10-05T01:59:45.948Z,57.66
2023-10-05T02:02:17.241Z,57.71
2023-10-05T02:04:46.014Z,57.98
2023-10-05T02:07:16.216Z,58.04
2023-10-05T02:09:44.064Z,58.29
2023-10-05T02:12:11.837Z,58.39
2023-10-05T02:14:42.788Z,58.43
2023-10-05T02:17:11.037Z,58.53
2023-10-05T02:19:42.795Z,58.59
2023-10-05T02:22:13.032Z,58.70
2023-10-05T02:24:43.474Z,58.74
2023-10-05T02:27:13.059Z,58.90
2023-10-05T02:29:41.846Z,59.04
2023-10-05T02:32:13.142Z,59.22
2023-10-05T02:34:46.316Z,59.34
2023-10-05T02:37:14.818Z,59.38
2023-10-05T02:39:42.873Z,59.39
2023-10-05T02:42:13.704Z,59.47
2023-10-05T02:44:44.647Z,59.55
2023-10-05T02:47:17.446Z,59.55
2023-10-05T02:49:45.523Z,59.71
2023-10-05T02:52:18.070Z,59.88
2023-10-05T02:54:49.999Z,60.02
2023-10-05T02:57:18.489Z,59.93
2023-10-05T02:59:46.445Z,59.97
2023-10-05T03:02:18.474Z,60.10
2023-10-05T03:04:46.816Z,60.02
2023-10-05T03:07:21.090Z,60.08
2023-10-05T03:09:53.257Z,59.75
2023-10-05T03:12:22.357Z,59.96
2023-10-05T03:14:52.737Z,60.11
2023-10-05T03:17:21.500Z,60.14
2023-10-05T03:19:52.044Z,60.21
2023-10-05T03:22:19.930Z,60.37
2023-10-05T03:24:49.097Z,60.44
2023-10-05T03:27:17.868Z,60.51
2023-10-05T03:29:48.291Z,60.73
2023-10-05T03:32:20.557Z,61.02
2023-10-05T03:34:57.299Z,61.13
2023-10-05T03:37:26.126Z,61.26
2023-10-05T03:40:08.503Z,61.38
2023-10-05T03:42:36.345Z,61.53
2023-10-05T03:45:11.363Z,61.75
2023-10-05T03:47:39.601Z,61.87
2023-10-05T03:50:09.900Z,62.00
2023-10-05T03:52:37.603Z,62.01
2023-10-05T03:55:07.126Z,62.08
2023-10-05T03:57:34.567Z,62.00
2023-10-05T04:00:17.593Z,62.16
2023-10-05T04:02:48.135Z,62.13
2023-10-05T04:05:19.824Z,62.07
2023-10-05T04:07:53.178Z,62.10
2023-10-05T04:10:39.474Z,62.09
2023-10-05T04:13:07.368Z,62.05
2023-10-05T04:15:35.001Z,62.05
2023-10-05T04:18:02.712Z,62.03
2023-10-05T04:20:30.450Z,61.98
2023-10-05T04:22:58.139Z,61.82
2023-10-05T04:25:25.904Z,61.69
2023-10-05T04:27:54.346Z,61.56
2023-10-05T04:30:23.071Z,61.65
2023-10-05T04:32:50.987Z,61.70
2023-10-05T04:35:28.385Z,61.82
2023-10-05T04:37:56.316Z,61.80
2023-10-05T04:40:27.178Z,61.84
2023-10-05T04:43:00.480Z,61.91
2023-10-05T04:45:29.610Z,61.80
2023-10-05T04:48:00.919Z,61.75
2023-10-05T04:50:28.882Z,61.68
2023-10-05T04:52:56.459Z,61.87
2023-10-05T04:55:33.808Z,61.92
2023-10-05T04:58:20.537Z,62.07
2023-10-05T05:00:48.237Z,62.10
2023-10-05T05:03:34.298Z,62.00
2023-10-05T05:06:08.122Z,62.03
2023-10-05T05:08:40.394Z,62.01
2023-10-05T05:11:13.437Z,61.91
2023-10-05T05:13:41.106Z,61.85
2023-10-05T05:16:09.538Z,61.98
2023-10-05T05:18:40.182Z,62.13
2023-10-05T05:21:08.943Z,62.09
2023-10-05T05:23:37.020Z,62.00
2023-10-05T05:26:10.936Z,62.01
2023-10-05T05:28:39.089Z,61.77
2023-10-05T05:31:15.927Z,61.46
2023-10-05T05:33:45.809Z,61.46
2023-10-05T05:36:14.519Z,61.70
2023-10-05T05:38:42.458Z,61.76
2023-10-05T05:45:17.487Z,62.13
2023-10-05T05:47:49.863Z,61.66
2023-10-05T05:50:19.902Z,61.36
2023-10-05T05:52:49.774Z,61.33
2023-10-05T05:55:24.839Z,61.37
2023-10-05T05:57:55.383Z,61.49
2023-10-05T06:00:26.687Z,61.41
2023-10-05T06:02:58.663Z,61.47
2023-10-05T06:05:29.247Z,61.35
2023-10-05T06:07:59.396Z,61.27
2023-10-05T06:10:51.242Z,61.14
2023-10-05T06:13:51.870Z,61.15
2023-10-05T06:16:22.647Z,60.86
2023-10-05T06:18:57.057Z,60.74
2023-10-05T06:21:27.374Z,60.35
2023-10-05T06:24:04.843Z,60.00
2023-10-05T06:26:35.113Z,60.00
2023-10-05T06:29:08.067Z,59.94
2023-10-05T06:31:46.173Z,59.90
2023-10-05T06:34:24.735Z,59.71
2023-10-05T06:36:54.036Z,59.51
2023-10-05T06:39:27.517Z,59.26
2023-10-05T06:41:55.841Z,58.97
2023-10-05T06:44:24.978Z,58.85
2023-10-05T06:46:54.805Z,58.88
2023-10-05T06:49:24.220Z,58.67
2023-10-05T06:51:51.957Z,58.58
2023-10-05T06:54:19.927Z,58.60
2023-10-05T06:56:51.171Z,58.61
2023-10-05T06:59:22.635Z,58.54
2023-10-05T07:01:50.714Z,58.34
2023-10-05T07:04:22.553Z,58.60
2023-10-05T07:06:51.659Z,58.45
2023-10-05T07:09:19.216Z,58.27
2023-10-05T07:11:46.983Z,58.23
2023-10-05T07:14:15.374Z,58.12
2023-10-05T07:16:42.992Z,57.92
2023-10-05T07:19:10.800Z,57.67
2023-10-05T07:21:39.777Z,57.32
2023-10-05T07:24:08.783Z,57.27
2023-10-05T07:26:36.370Z,57.17
2023-10-05T07:29:15.904Z,57.19
2023-10-05T07:31:52.078Z,57.01
2023-10-05T07:34:19.858Z,56.93
2023-10-05T07:36:47.471Z,56.78
2023-10-05T07:39:16.358Z,56.65
2023-10-05T07:41:45.556Z,56.70
2023-10-05T07:44:13.485Z,56.55
2023-10-05T07:46:44.500Z,56.52
2023-10-05T07:49:12.340Z,56.60
2023-10-05T07:51:40.045Z,56.31
2023-10-05T07:54:08.490Z,56.19
2023-10-05T07:56:37.062Z,56.03
2023-10-05T07:59:05.580Z,55.86
2023-10-05T08:01:33.580Z,55.74
2023-10-05T08:04:01.385Z,55.50
2023-10-05T08:06:29.140Z,55.30
2023-10-05T08:08:56.699Z,55.14
2023-10-05T08:11:24.569Z,55.31
2023-10-05T08:13:53.604Z,55.20
2023-10-05T08:16:21.339Z,54.77
2023-10-05T08:18:51.140Z,54.21
2023-10-05T08:21:18.597Z,53.66
2023-10-05T08:23:46.261Z,53.08
2023-10-05T08:26:14.544Z,53.17
2023-10-05T08:28:42.218Z,53.05
2023-10-05T08:31:10.832Z,53.23
2023-10-05T08:33:41.487Z,53.23
2023-10-05T08:36:13.420Z,52.25
2023-10-05T08:38:41.371Z,51.59
2023-10-05T08:41:13.123Z,51.75
2023-10-05T08:43:41.121Z,51.22
2023-10-05T08:46:16.243Z,51.03
2023-10-05T08:48:43.799Z,50.85
2023-10-05T08:51:14.517Z,51.08
2023-10-05T08:53:45.795Z,50.66
2023-10-05T08:56:17.097Z,50.36
2023-10-05T08:58:50.107Z,50.13
2023-10-05T09:01:36.549Z,50.14
2023-10-05T09:04:11.285Z,49.65
2023-10-05T09:06:49.535Z,48.99
2023-10-05T09:09:20.989Z,48.92
2023-10-05T09:11:48.546Z,49.21
2023-10-05T09:14:19.576Z,49.08
2023-10-05T09:16:59.765Z,49.43
2023-10-05T09:19:28.431Z,48.92
2023-10-05T09:22:02.201Z,48.60
2023-10-05T09:24:32.152Z,48.56
2023-10-05T09:27:18.676Z,48.59
2023-10-05T09:29:47.145Z,48.27
2023-10-05T09:32:27.125Z,48.10
2023-10-05T09:34:58.164Z,47.77
2023-10-05T09:37:28.825Z,47.72
2023-10-05T09:40:01.111Z,47.06
2023-10-05T09:42:29.112Z,47.05
2023-10-05T09:45:00.534Z,47.18
2023-10-05T09:47:34.787Z,46.80
2023-10-05T09:50:11.186Z,46.88
2023-10-05T09:52:44.629Z,47.13
2023-10-05T09:55:15.195Z,46.81
2023-10-05T09:57:52.900Z,46.83
2023-10-05T10:00:27.510Z,47.03
2023-10-05T10:02:59.939Z,46.96
2023-10-05T10:05:36.674Z,46.65
2023-10-05T10:08:14.927Z,46.66
2023-10-05T10:10:53.386Z,46.72
2023-10-05T10:13:24.502Z,45.64
2023-10-05T10:15:58.190Z,45.38
2023-10-05T10:18:38.729Z,44.78
2023-10-05T10:21:14.540Z,45.04
2023-10-05T10:23:46.288Z,44.95
2023-10-05T10:26:22.351Z,45.16
2023-10-05T10:28:58.995Z,45.06
2023-10-05T10:31:44.862Z,44.76
2023-10-05T10:34:21.170Z,44.29
2023-10-05T10:36:53.752Z,43.75
2023-10-05T10:39:24.985Z,43.82
2023-10-05T10:42:02.591Z,43.75
2023-10-05T10:44:30.256Z,43.57
2023-10-05T10:47:12.420Z,43.87
2023-10-05T10:49:41.655Z,43.92
2023-10-05T10:52:16.905Z,43.71
2023-10-05T10:54:48.247Z,43.26
2023-10-05T10:57:23.962Z,43.39
2023-10-05T11:00:14.586Z,43.46
2023-10-05T11:02:42.496Z,43.25
2023-10-05T11:05:18.518Z,43.12
2023-10-05T11:07:46.444Z,43.05
2023-10-05T11:10:20.621Z,42.07
2023-10-05T11:12:55.611Z,42.18
2023-10-05T11:15:29.961Z,41.93
2023-10-05T11:18:01.382Z,41.87
2023-10-05T11:20:35.149Z,41.22
2023-10-05T11:23:10.365Z,41.23
2023-10-05T11:25:48.518Z,41.24
2023-10-05T11:28:26.744Z,40.96
2023-10-05T11:31:04.338Z,41.14
2023-10-05T11:34:07.649Z,40.86
2023-10-05T11:36:30.671Z,40.31
2023-10-05T11:39:01.692Z,40.42
2023-10-05T11:41:33.834Z,40.48
2023-10-05T11:44:01.852Z,40.33
2023-10-05T11:46:48.224Z,39.84
2023-10-05T11:49:16.097Z,39.75
2023-10-05T11:51:44.152Z,40.12
2023-10-05T11:54:12.837Z,40.01
2023-10-05T11:56:42.003Z,40.00
2023-10-05T11:59:12.691Z,40.27
2023-10-05T12:01:44.521Z,39.91
2023-10-05T12:04:12.713Z,39.87
2023-10-05T12:06:41.104Z,40.12
2023-10-05T12:09:09.100Z,40.20
2023-10-05T12:11:40.045Z,40.02
2023-10-05T12:14:07.646Z,40.29
2023-10-05T12:16:36.331Z,39.98
2023-10-05T12:19:15.239Z,39.96
2023-10-05T12:21:44.676Z,39.53
2023-10-05T12:24:13.085Z,39.14
2023-10-05T12:26:41.158Z,38.92
2023-10-05T12:29:13.794Z,38.09
2023-10-05T12:31:42.257Z,38.28
2023-10-05T12:34:25.462Z,38.83
2023-10-05T12:36:55.929Z,38.53
2023-10-05T12:39:29.216Z,38.76
2023-10-05T12:41:57.705Z,38.94
2023-10-05T12:44:25.481Z,38.84
2023-10-05T12:46:53.150Z,38.43
2023-10-05T12:49:21.910Z,37.91
2023-10-05T12:51:51.585Z,37.71
2023-10-05T12:54:29.925Z,35.76
2023-10-05T12:57:13.645Z,32.69
2023-10-05T12:59:45.871Z,30.90
2023-10-05T13:02:20.450Z,28.94
2023-10-05T13:04:48.902Z,27.25
2023-10-05T13:07:21.340Z,26.81
2023-10-05T13:10:00.990Z,26.90
2023-10-05T13:12:30.690Z,25.77
2023-10-05T13:14:58.247Z,25.86
2023-10-05T13:17:26.629Z,25.74
2023-10-05T13:19:54.188Z,25.44
2023-10-05T13:22:22.637Z,24.33
2023-10-05T13:24:56.723Z,24.10
2023-10-05T13:27:26.032Z,23.43
2023-10-05T13:29:55.711Z,23.27
2023-10-05T13:32:24.267Z,23.41
2023-10-05T13:34:52.046Z,22.95
2023-10-05T13:37:21.329Z,23.06
2023-10-05T13:39:49.318Z,23.06
2023-10-05T13:42:27.116Z,23.07
2023-10-05T13:44:56.110Z,23.22
2023-10-05T13:47:28.537Z,22.83
2023-10-05T13:50:09.205Z,23.36
2023-10-05T13:52:40.317Z,23.82
2023-10-05T13:55:09.339Z,24.24
2023-10-05T13:57:38.276Z,24.37
2023-10-05T14:00:19.203Z,24.63
2023-10-05T14:02:51.220Z,25.56
2023-10-05T14:05:22.204Z,26.08
2023-10-05T14:07:52.671Z,26.69
2023-10-05T14:10:22.485Z,27.08
2023-10-05T14:12:50.669Z,27.43
2023-10-05T14:15:22.003Z,27.56
2023-10-05T14:17:52.604Z,27.71
2023-10-05T14:20:20.342Z,27.87
2023-10-05T14:22:48.236Z,28.20
2023-10-05T14:25:19.407Z,28.78
2023-10-05T14:27:48.799Z,29.53
2023-10-05T14:30:21.590Z,30.17
2023-10-05T14:32:52.253Z,31.06
2023-10-05T14:35:20.771Z,31.88
2023-10-05T14:37:51.357Z,32.44
2023-10-05T14:40:26.440Z,32.81
2023-10-05T14:42:54.489Z,33.28
2023-10-05T14:45:23.017Z,33.35
2023-10-05T14:47:50.735Z,33.55
2023-10-05T14:50:19.199Z,33.97
2023-10-05T14:52:53.530Z,34.66
2023-10-05T14:55:21.776Z,34.83
2023-10-05T14:57:49.460Z,35.01
2023-10-05T15:00:17.752Z,35.40
2023-10-05T15:02:45.804Z,35.61
2023-10-05T15:05:14.489Z,35.90
2023-10-05T15:07:42.929Z,35.99
2023-10-05T15:10:17.450Z,36.14
2023-10-05T15:12:45.877Z,36.46
2023-10-05T15:15:16.999Z,36.97
2023-10-05T15:17:46.131Z,37.09
2023-10-05T15:20:15.748Z,37.76
2023-10-05T15:22:46.241Z,38.87
2023-10-05T15:25:17.121Z,39.48
2023-10-05T15:27:44.754Z,38.94
2023-10-05T15:30:16.673Z,38.57
2023-10-05T15:32:50.693Z,38.52
2023-10-05T15:35:19.619Z,38.51
2023-10-05T15:37:48.498Z,38.71
2023-10-05T15:40:17.094Z,38.96
2023-10-05T15:42:46.461Z,39.20
2023-10-05T15:45:14.895Z,39.43
2023-10-05T15:47:45.357Z,39.42
2023-10-05T15:50:17.376Z,39.57
2023-10-05T15:52:59.068Z,39.83
2023-10-05T15:55:28.024Z,40.27
2023-10-05T15:57:56.540Z,40.42
2023-10-05T16:00:27.188Z,40.68
2023-10-05T16:02:59.305Z,41.05
2023-10-05T16:05:28.402Z,41.92
2023-10-05T16:08:01.001Z,42.52
2023-10-05T16:10:29.646Z,43.02
2023-10-05T16:12:57.768Z,43.40
2023-10-05T16:15:25.596Z,43.87
2023-10-05T16:17:53.830Z,44.31
2023-10-05T16:20:26.997Z,44.78
2023-10-05T16:22:59.631Z,45.25
2023-10-05T16:25:28.375Z,45.35
2023-10-05T16:27:56.137Z,45.79
2023-10-05T16:30:23.734Z,46.17
2023-10-05T16:32:52.679Z,46.62
2023-10-05T16:35:20.347Z,47.10
2023-10-05T16:37:49.862Z,47.38
2023-10-05T16:40:20.918Z,47.96
2023-10-05T16:42:49.786Z,48.28
2023-10-05T16:45:21.285Z,48.47
2023-10-05T16:47:51.171Z,48.87
2023-10-05T16:50:20.361Z,49.13
2023-10-05T16:52:49.429Z,49.54
2023-10-05T16:55:21.387Z,49.75
2023-10-05T16:57:51.717Z,50.19
2023-10-05T17:00:28.798Z,50.29
2023-10-05T17:02:57.082Z,50.46
2023-10-05T17:05:29.946Z,50.61
2023-10-05T17:08:00.725Z,50.85
2023-10-05T17:10:28.581Z,50.87
2023-10-05T17:12:56.554Z,50.84
2023-10-05T17:15:30.061Z,50.86
2023-10-05T17:17:57.880Z,50.82
2023-10-05T17:20:25.684Z,50.79
2023-10-05T17:22:56.294Z,50.53
2023-10-05T17:25:24.977Z,50.40
2023-10-05T17:27:52.760Z,50.47
2023-10-05T17:30:20.551Z,50.43
2023-10-05T17:32:48.839Z,50.22
2023-10-05T17:35:25.898Z,50.12
2023-10-05T17:37:54.331Z,50.35
2023-10-05T17:40:22.540Z,50.35
2023-10-05T17:42:50.544Z,50.29
2023-10-05T17:45:18.291Z,50.35
2023-10-05T17:47:46.761Z,50.41
2023-10-05T17:50:16.342Z,50.51
2023-10-05T17:52:47.794Z,50.67
2023-10-05T17:55:15.868Z,50.82
2023-10-05T17:57:43.622Z,50.77
2023-10-05T18:03:08.089Z,51.65
2023-10-05T18:05:39.533Z,51.04
2023-10-05T18:08:08.066Z,50.79
2023-10-05T18:10:41.441Z,50.83
2023-10-05T18:13:08.976Z,50.58
2023-10-05T18:15:36.483Z,50.24
2023-10-05T18:18:08.787Z,49.90
2023-10-05T18:20:36.667Z,49.48
2023-10-05T18:23:07.110Z,49.37
2023-10-05T18:25:35.828Z,49.30
2023-10-05T18:28:06.444Z,49.28
2023-10-05T18:30:36.213Z,49.25
2023-10-05T18:33:07.706Z,49.49
2023-10-05T18:35:37.581Z,49.62
2023-10-05T18:38:08.738Z,49.97
2023-10-05T18:40:36.607Z,50.16
2023-10-05T18:43:07.194Z,50.24
2023-10-05T18:45:35.474Z,50.59
2023-10-05T18:48:03.707Z,50.96
2023-10-05T18:50:31.385Z,51.19
2023-10-05T18:52:59.170Z,51.38
2023-10-05T18:55:26.835Z,51.40
2023-10-05T18:57:54.529Z,51.04
2023-10-05T19:00:22.404Z,50.80
2023-10-05T19:02:50.530Z,50.62
2023-10-05T19:05:18.546Z,50.39
2023-10-05T19:07:47.972Z,50.19
2023-10-05T19:10:18.580Z,50.11
2023-10-05T19:12:47.774Z,49.95
2023-10-05T19:15:15.388Z,49.78
2023-10-05T19:17:43.061Z,49.72
2023-10-05T19:20:10.981Z,49.68
2023-10-05T19:22:38.678Z,49.62
2023-10-05T19:25:08.039Z,49.62
2023-10-05T19:27:37.275Z,49.58
2023-10-05T19:30:06.124Z,49.50
2023-10-05T19:32:34.831Z,49.54
2023-10-05T19:35:03.092Z,49.42
2023-10-05T19:37:30.730Z,49.40
2023-10-05T19:39:58.411Z,49.41
2023-10-05T19:42:25.973Z,49.51
2023-10-05T19:44:53.535Z,49.40
2023-10-05T19:47:21.404Z,49.40
2023-10-05T19:49:51.640Z,49.24
2023-10-05T19:52:19.402Z,49.31
2023-10-05T19:54:46.950Z,49.20
2023-10-05T19:57:14.923Z,49.15
2023-10-05T19:59:46.680Z,49.16
2023-10-05T20:02:15.475Z,49.02
2023-10-05T20:04:43.152Z,48.83
2023-10-05T20:07:11.725Z,48.77
2023-10-05T20:09:42.345Z,48.70
2023-10-05T20:12:09.857Z,48.64
2023-10-05T20:14:37.408Z,48.53
2023-10-05T20:17:09.350Z,48.43
2023-10-05T20:19:36.993Z,48.40
2023-10-05T20:22:04.955Z,48.47
2023-10-05T20:24:32.823Z,48.48
2023-10-05T20:27:00.414Z,48.45
2023-10-05T20:29:31.827Z,48.23
2023-10-05T20:31:59.428Z,48.18
2023-10-05T20:34:28.311Z,48.32
2023-10-05T20:36:56.057Z,48.32
2023-10-05T20:39:24.342Z,48.13
2023-10-05T20:41:55.641Z,48.13
2023-10-05T20:44:24.161Z,47.96
2023-10-05T20:46:51.903Z,48.03
2023-10-05T20:49:19.584Z,48.07
2023-10-05T20:51:47.254Z,48.03
2023-10-05T20:54:14.803Z,48.14
2023-10-05T20:56:44.720Z,48.12
2023-10-05T20:59:13.711Z,48.18
2023-10-05T21:01:41.346Z,48.16
2023-10-05T21:04:09.340Z,48.28
2023-10-05T21:06:37.523Z,48.28
2023-10-05T21:09:05.557Z,48.30
2023-10-05T21:11:34.580Z,48.32
2023-10-05T21:14:02.372Z,48.31
2023-10-05T21:16:30.300Z,48.34
2023-10-05T21:18:57.985Z,48.39
2023-10-05T21:21:26.286Z,48.42
2023-10-05T21:23:53.926Z,48.39
2023-10-05T21:26:22.007Z,48.58
2023-10-05T21:28:49.549Z,48.60
2023-10-05T21:31:17.076Z,48.52
2023-10-05T21:33:44.570Z,48.47
2023-10-05T21:36:13.736Z,48.47
2023-10-05T21:38:41.550Z,48.67
2023-10-05T21:41:09.356Z,48.72
2023-10-05T21:43:37.011Z,48.73
2023-10-05T21:46:04.559Z,48.71
2023-10-05T21:48:32.619Z,48.85
2023-10-05T21:51:00.268Z,48.79
2023-10-05T21:53:28.229Z,48.89
2023-10-05T21:55:55.910Z,48.75
2023-10-05T21:58:24.607Z,48.75
2023-10-05T22:00:54.399Z,48.67
2023-10-05T22:03:22.897Z,48.82
2023-10-05T22:05:50.641Z,48.80
2023-10-05T22:08:18.297Z,48.94
2023-10-05T22:10:45.928Z,48.96
2023-10-05T22:13:14.049Z,49.05
2023-10-05T22:15:41.806Z,48.96
2023-10-05T22:18:11.785Z,49.18
2023-10-05T22:20:40.316Z,49.02
2023-10-05T22:23:08.989Z,49.08
2023-10-05T22:25:40.823Z,49.12
2023-10-05T22:28:09.147Z,49.11
2023-10-05T22:30:38.935Z,49.15
2023-10-05T22:33:09.877Z,49.26
2023-10-05T22:35:39.069Z,49.29
2023-10-05T22:38:06.966Z,49.35
2023-10-05T22:40:36.673Z,49.53
2023-10-05T22:43:04.522Z,49.51
2023-10-05T22:45:33.898Z,49.48
2023-10-05T22:48:01.511Z,49.55
2023-10-05T22:50:29.142Z,49.59
2023-10-05T22:52:57.512Z,49.66
2023-10-05T22:55:26.147Z,49.75
2023-10-05T22:57:55.717Z,49.65
2023-10-05T23:00:23.403Z,49.75
2023-10-05T23:02:51.146Z,49.96
2023-10-05T23:05:21.777Z,50.01
2023-10-05T23:07:49.371Z,50.05
2023-10-05T23:10:16.777Z,50.20
2023-10-05T23:12:44.354Z,50.34
2023-10-05T23:15:11.915Z,50.39
2023-10-05T23:17:40.418Z,50.39
2023-10-05T23:20:09.180Z,50.47
2023-10-05T23:22:39.167Z,50.60
2023-10-05T23:25:18.620Z,50.63
2023-10-05T23:27:47.948Z,50.73
2023-10-05T23:30:16.728Z,50.69
2023-10-05T23:32:48.000Z,50.84
2023-10-05T23:35:20.846Z,51.03
2023-10-05T23:37:53.099Z,51.04
2023-10-05T23:40:22.225Z,51.22
2023-10-05T23:42:49.810Z,51.09
2023-10-05T23:45:19.497Z,51.24
2023-10-05T23:47:49.585Z,51.15
2023-10-05T23:50:27.417Z,51.14
2023-10-05T23:52:58.152Z,51.14
2023-10-05T23:55:26.645Z,51.19
2023-10-05T23:57:54.720Z,51.16
